createdAt,value
2018-12-12T00:00:58.076Z,5.59
2018-12-12T00:01:58.063Z,5.46
2018-12-12T00:03:19.034Z,5.63
2018-12-12T00:03:58.009Z,5.52
2018-12-12T00:04:57.992Z,5.48
2018-12-12T00:05:57.966Z,5.55
2018-12-12T00:06:57.948Z,5.48
2018-12-12T00:07:57.925Z,5.45
2018-12-12T00:09:18.910Z,5.50
2018-12-12T00:09:57.882Z,5.48
2018-12-12T00:10:57.863Z,5.41
2018-12-12T00:11:57.839Z,5.49
2018-12-12T00:12:57.817Z,5.52
2018-12-12T00:13:57.801Z,5.50
2018-12-12T00:15:18.777Z,5.41
2018-12-12T00:15:57.758Z,5.35
2018-12-12T00:16:57.738Z,5.41
2018-12-12T00:17:57.711Z,5.37
2018-12-12T00:18:57.689Z,5.30
2018-12-12T00:19:57.672Z,5.30
2018-12-12T00:21:18.648Z,5.32
2018-12-12T00:21:57.628Z,5.23
2018-12-12T00:22:57.606Z,5.32
2018-12-12T00:23:57.586Z,5.34
2018-12-12T00:24:57.572Z,5.34
2018-12-12T00:25:57.544Z,5.23
2018-12-12T00:27:18.521Z,5.23
2018-12-12T00:27:57.504Z,5.35
2018-12-12T00:28:57.475Z,5.30
2018-12-12T00:29:57.456Z,5.22
2018-12-12T00:30:57.442Z,5.28
2018-12-12T00:31:57.413Z,5.32
2018-12-12T00:33:18.389Z,5.13
2018-12-12T00:33:57.370Z,5.17
2018-12-12T00:34:57.348Z,5.19
2018-12-12T00:35:57.325Z,5.10
2018-12-12T00:36:57.304Z,5.13
2018-12-12T00:37:57.289Z,5.12
2018-12-12T00:39:18.264Z,5.05
2018-12-12T00:39:57.238Z,5.14
2018-12-12T00:40:57.216Z,5.16
2018-12-12T00:41:57.193Z,5.13
2018-12-12T00:42:57.175Z,5.13
2018-12-12T00:43:57.158Z,5.14
2018-12-12T00:45:18.135Z,5.28
2018-12-12T00:45:57.108Z,5.28
2018-12-12T00:46:57.092Z,5.13
2018-12-12T00:47:57.071Z,5.12
2018-12-12T00:48:57.047Z,5.19
2018-12-12T00:49:57.023Z,5.14
2018-12-12T00:51:18.015Z,5.17
2018-12-12T00:51:56.982Z,5.14
2018-12-12T00:52:56.964Z,5.20
2018-12-12T00:53:56.940Z,5.10
2018-12-12T00:54:56.919Z,5.17
2018-12-12T00:55:56.894Z,5.20
2018-12-12T00:57:17.887Z,5.14
2018-12-12T00:57:56.851Z,5.14
2018-12-12T00:58:56.831Z,5.17
2018-12-12T00:59:56.808Z,5.17
2018-12-12T01:00:56.786Z,5.28
2018-12-12T01:01:56.764Z,5.25
2018-12-12T01:03:17.748Z,5.19
2018-12-12T01:03:56.733Z,5.17
2018-12-12T01:04:56.698Z,5.13
2018-12-12T01:05:56.685Z,5.19
2018-12-12T01:06:56.659Z,5.16
2018-12-12T01:07:56.637Z,5.17
2018-12-12T01:09:17.613Z,5.19
2018-12-12T01:09:56.592Z,5.14
2018-12-12T01:10:56.571Z,5.22
2018-12-12T01:11:56.556Z,5.19
2018-12-12T01:12:56.527Z,5.02
2018-12-12T01:13:56.508Z,4.95
2018-12-12T01:15:17.491Z,4.89
2018-12-12T01:15:56.463Z,4.86
2018-12-12T01:16:56.443Z,4.86
2018-12-12T01:17:56.433Z,4.80
2018-12-12T01:18:56.398Z,4.79
2018-12-12T01:19:56.376Z,4.84
2018-12-12T01:21:17.361Z,4.72
2018-12-12T01:21:56.337Z,4.72
2018-12-12T01:22:56.314Z,4.83
2018-12-12T01:23:56.288Z,4.77
2018-12-12T01:24:56.266Z,4.77
2018-12-12T01:25:56.251Z,4.88
2018-12-12T01:27:17.226Z,4.73
2018-12-12T01:27:56.209Z,4.73
2018-12-12T01:28:56.182Z,4.75
2018-12-12T01:29:56.155Z,4.69
2018-12-12T01:30:56.138Z,4.69
2018-12-12T01:31:56.117Z,4.58
2018-12-12T01:33:17.092Z,4.69
2018-12-12T01:33:56.075Z,4.61
2018-12-12T01:34:56.052Z,4.59
2018-12-12T01:35:56.033Z,4.61
2018-12-12T01:36:56.009Z,4.58
2018-12-12T01:37:55.985Z,4.55
2018-12-12T01:39:16.966Z,4.64
2018-12-12T01:39:55.944Z,4.65
2018-12-12T01:40:55.925Z,4.73
2018-12-12T01:41:55.903Z,4.83
2018-12-12T01:42:55.874Z,4.91
2018-12-12T01:43:55.855Z,4.86
2018-12-12T01:45:16.836Z,4.83
2018-12-12T01:45:55.809Z,4.83
2018-12-12T01:46:55.786Z,4.75
2018-12-12T01:47:55.770Z,4.69
2018-12-12T01:48:55.741Z,4.83
2018-12-12T01:49:55.721Z,4.86
2018-12-12T01:51:16.703Z,4.88
2018-12-12T01:51:55.678Z,4.89
2018-12-12T01:52:55.656Z,4.92
2018-12-12T01:53:55.659Z,4.95
2018-12-12T01:54:55.613Z,4.95
2018-12-12T01:55:55.590Z,4.99
2018-12-12T01:57:16.573Z,5.12
2018-12-12T01:57:55.685Z,5.14
2018-12-12T01:58:55.581Z,5.16
2018-12-12T01:59:55.578Z,5.14
2018-12-12T02:00:55.479Z,5.20
2018-12-12T02:01:55.465Z,5.16
2018-12-12T02:03:16.439Z,5.10
2018-12-12T02:03:55.421Z,5.17
2018-12-12T02:04:55.396Z,5.23
2018-12-12T02:05:55.372Z,5.25
2018-12-12T02:06:55.349Z,5.14
2018-12-12T02:07:55.326Z,5.30
2018-12-12T02:09:16.314Z,5.27
2018-12-12T02:09:55.442Z,5.32
2018-12-12T02:10:55.262Z,5.28
2018-12-12T02:11:55.240Z,5.37
2018-12-12T02:12:55.224Z,5.32
2018-12-12T02:13:55.196Z,5.30
2018-12-12T02:15:16.178Z,5.30
2018-12-12T02:15:55.154Z,5.17
2018-12-12T02:16:55.130Z,5.23
2018-12-12T02:17:55.110Z,5.13
2018-12-12T02:18:55.091Z,5.17
2018-12-12T02:19:55.065Z,5.14
2018-12-12T02:21:16.048Z,5.14
2018-12-12T02:21:55.028Z,5.09
2018-12-12T02:22:55.004Z,5.14
2018-12-12T02:23:55.150Z,5.07
2018-12-12T02:24:54.959Z,5.10
2018-12-12T02:25:54.944Z,5.16
2018-12-12T02:27:15.917Z,5.07
2018-12-12T02:27:54.897Z,5.10
2018-12-12T02:28:54.875Z,5.10
2018-12-12T02:29:54.850Z,5.13
2018-12-12T02:30:54.830Z,5.14
2018-12-12T02:31:54.813Z,5.12
2018-12-12T02:33:15.785Z,5.17
2018-12-12T02:33:54.766Z,5.14
2018-12-12T02:34:54.746Z,5.17
2018-12-12T02:35:54.721Z,5.28
2018-12-12T02:36:54.698Z,5.22
2018-12-12T02:37:54.676Z,5.19
2018-12-12T02:39:15.790Z,5.23
2018-12-12T02:39:54.632Z,5.20
2018-12-12T02:40:54.610Z,5.28
2018-12-12T02:41:54.592Z,5.16
2018-12-12T02:42:54.581Z,5.22
2018-12-12T02:43:54.548Z,5.19
2018-12-12T02:45:15.537Z,5.20
2018-12-12T02:45:54.504Z,5.17
2018-12-12T02:46:54.482Z,5.14
2018-12-12T02:47:54.538Z,5.05
2018-12-12T02:48:54.441Z,5.10
2018-12-12T02:49:54.422Z,5.01
2018-12-12T02:51:15.401Z,5.01
2018-12-12T02:51:54.379Z,4.98
2018-12-12T02:52:54.353Z,5.13
2018-12-12T02:53:54.329Z,5.07
2018-12-12T02:54:54.310Z,5.14
2018-12-12T02:55:54.289Z,5.14
2018-12-12T02:57:15.265Z,5.16
2018-12-12T02:57:54.242Z,5.23
2018-12-12T02:58:54.223Z,5.34
2018-12-12T02:59:54.200Z,5.28
2018-12-12T03:00:54.179Z,5.28
2018-12-12T03:01:54.163Z,5.19
2018-12-12T03:03:15.209Z,5.20
2018-12-12T03:03:54.113Z,5.13
2018-12-12T03:04:54.091Z,5.14
2018-12-12T03:05:54.077Z,5.13
2018-12-12T03:06:54.053Z,5.23
2018-12-12T03:07:54.027Z,5.23
2018-12-12T03:09:15.006Z,5.28
2018-12-12T03:09:53.984Z,5.19
2018-12-12T03:10:53.961Z,5.23
2018-12-12T03:11:53.946Z,5.17
2018-12-12T03:12:53.933Z,5.31
2018-12-12T03:13:53.905Z,5.28
2018-12-12T03:15:14.880Z,5.30
2018-12-12T03:15:53.855Z,5.37
2018-12-12T03:16:53.833Z,5.45
2018-12-12T03:17:53.823Z,5.38
2018-12-12T03:18:53.789Z,5.37
2018-12-12T03:19:53.768Z,5.37
2018-12-12T03:21:14.758Z,5.37
2018-12-12T03:21:53.725Z,5.41
2018-12-12T03:22:53.710Z,5.30
2018-12-12T03:23:53.682Z,5.32
2018-12-12T03:24:53.661Z,5.31
2018-12-12T03:25:53.643Z,5.20
2018-12-12T03:27:14.624Z,5.25
2018-12-12T03:27:53.605Z,5.25
2018-12-12T03:28:53.575Z,5.20
2018-12-12T03:29:53.556Z,5.28
2018-12-12T03:30:53.534Z,5.31
2018-12-12T03:31:53.517Z,5.43
2018-12-12T03:33:14.493Z,5.45
2018-12-12T03:33:53.471Z,5.37
2018-12-12T03:34:53.450Z,5.38
2018-12-12T03:35:53.558Z,5.35
2018-12-12T03:36:53.404Z,5.32
2018-12-12T03:37:53.382Z,5.25
2018-12-12T03:39:14.365Z,5.19
2018-12-12T03:39:53.341Z,5.30
2018-12-12T03:40:53.318Z,5.28
2018-12-12T03:41:53.304Z,5.37
2018-12-12T03:42:53.279Z,5.41
2018-12-12T03:43:53.255Z,5.40
2018-12-12T03:45:14.238Z,5.52
2018-12-12T03:45:53.387Z,5.48
2018-12-12T03:46:53.195Z,5.56
2018-12-12T03:47:53.169Z,5.60
2018-12-12T03:48:53.163Z,5.60
2018-12-12T03:49:53.126Z,5.67
2018-12-12T03:51:14.231Z,5.70
2018-12-12T03:51:53.087Z,5.67
2018-12-12T03:52:53.063Z,5.68
2018-12-12T03:53:53.041Z,5.66
2018-12-12T03:54:53.023Z,5.75
2018-12-12T03:55:53.008Z,5.66
2018-12-12T03:57:13.978Z,5.68
2018-12-12T03:57:52.961Z,5.66
2018-12-12T03:58:52.935Z,5.66
2018-12-12T03:59:52.920Z,5.67
2018-12-12T04:00:52.892Z,5.77
2018-12-12T04:01:52.880Z,5.74
2018-12-12T04:03:13.852Z,5.75
2018-12-12T04:03:52.828Z,5.75
2018-12-12T04:04:52.803Z,5.73
2018-12-12T04:05:52.783Z,5.74
2018-12-12T04:06:52.767Z,5.63
2018-12-12T04:07:52.744Z,5.74
2018-12-12T04:09:13.724Z,5.68
2018-12-12T04:09:52.703Z,5.67
2018-12-12T04:10:52.681Z,5.73
2018-12-12T04:11:52.661Z,5.75
2018-12-12T04:12:52.664Z,5.75
2018-12-12T04:13:52.628Z,5.77
2018-12-12T04:15:13.595Z,5.75
2018-12-12T04:15:52.576Z,5.68
2018-12-12T04:16:52.554Z,5.70
2018-12-12T04:17:52.532Z,5.56
2018-12-12T04:18:52.515Z,5.60
2018-12-12T04:19:52.487Z,5.55
2018-12-12T04:21:13.473Z,5.63
2018-12-12T04:21:52.446Z,5.52
2018-12-12T04:22:52.428Z,5.52
2018-12-12T04:23:52.406Z,5.49
2018-12-12T04:24:52.383Z,5.52
2018-12-12T04:25:52.366Z,5.56
2018-12-12T04:27:13.345Z,5.52
2018-12-12T04:27:52.332Z,5.56
2018-12-12T04:28:52.362Z,5.53
2018-12-12T04:29:52.279Z,5.48
2018-12-12T04:30:52.256Z,5.57
2018-12-12T04:31:52.236Z,5.56
2018-12-12T04:33:13.211Z,5.50
2018-12-12T04:33:52.193Z,5.37
2018-12-12T04:34:52.222Z,5.17
2018-12-12T04:35:52.151Z,5.02
2018-12-12T04:36:52.137Z,5.02
2018-12-12T04:37:52.135Z,4.96
2018-12-12T04:39:13.115Z,5.01
2018-12-12T04:39:52.066Z,4.98
2018-12-12T04:40:52.047Z,5.02
2018-12-12T04:41:52.025Z,4.88
2018-12-12T04:42:52.001Z,4.83
2018-12-12T04:43:51.980Z,4.80
2018-12-12T04:45:12.960Z,4.76
2018-12-12T04:45:51.936Z,4.89
2018-12-12T04:46:51.918Z,4.88
2018-12-12T04:47:51.896Z,4.89
2018-12-12T04:48:51.871Z,4.92
2018-12-12T04:49:51.849Z,4.98
2018-12-12T04:51:12.835Z,4.99
2018-12-12T04:51:51.809Z,4.89
2018-12-12T04:52:51.785Z,4.91
2018-12-12T04:53:51.762Z,4.89
2018-12-12T04:54:51.740Z,4.88
2018-12-12T04:55:51.724Z,4.80
2018-12-12T04:57:12.699Z,4.77
2018-12-12T04:57:51.747Z,4.86
2018-12-12T04:58:51.654Z,4.80
2018-12-12T04:59:51.633Z,4.64
2018-12-12T05:00:51.618Z,4.69
2018-12-12T05:01:51.596Z,4.54
2018-12-12T05:03:12.573Z,4.54
2018-12-12T05:03:51.548Z,4.57
2018-12-12T05:04:51.525Z,4.43
2018-12-12T05:05:51.501Z,4.44
2018-12-12T05:06:51.485Z,4.58
2018-12-12T05:07:51.459Z,4.51
2018-12-12T05:09:12.451Z,4.50
2018-12-12T05:09:51.416Z,4.54
2018-12-12T05:10:51.396Z,4.55
2018-12-12T05:11:51.373Z,4.50
2018-12-12T05:12:51.352Z,4.57
2018-12-12T05:13:51.328Z,4.44
2018-12-12T05:15:12.307Z,4.39
2018-12-12T05:15:51.283Z,4.26
2018-12-12T05:16:51.261Z,4.29
2018-12-12T05:17:51.238Z,4.37
2018-12-12T05:18:51.225Z,4.33
2018-12-12T05:19:51.195Z,4.29
2018-12-12T05:21:12.177Z,4.37
2018-12-12T05:21:51.163Z,4.28
2018-12-12T05:22:51.138Z,4.28
2018-12-12T05:23:51.114Z,4.32
2018-12-12T05:24:51.085Z,4.26
2018-12-12T05:25:51.062Z,4.25
2018-12-12T05:27:12.044Z,4.15
2018-12-12T05:27:51.021Z,4.26
2018-12-12T05:28:50.994Z,4.24
2018-12-12T05:29:50.974Z,4.34
2018-12-12T05:30:50.951Z,4.33
2018-12-12T05:31:50.927Z,4.37
2018-12-12T05:33:11.911Z,4.33
2018-12-12T05:33:50.885Z,4.40
2018-12-12T05:34:50.869Z,4.39
2018-12-12T05:35:50.847Z,4.40
2018-12-12T05:36:50.821Z,4.44
2018-12-12T05:37:52.342Z,4.50
2018-12-12T05:39:11.778Z,4.55
2018-12-12T05:39:50.754Z,4.46
2018-12-12T05:40:50.734Z,4.50
2018-12-12T05:41:50.710Z,4.58
2018-12-12T05:42:50.686Z,4.55
2018-12-12T05:43:50.663Z,4.59
2018-12-12T05:45:11.642Z,4.59
2018-12-12T05:45:50.619Z,4.61
2018-12-12T05:46:50.597Z,4.59
2018-12-12T05:47:50.578Z,4.57
2018-12-12T05:48:50.552Z,4.51
2018-12-12T05:49:50.530Z,4.52
2018-12-12T05:51:11.524Z,4.54
2018-12-12T05:51:50.491Z,4.57
2018-12-12T05:52:50.466Z,4.59
2018-12-12T05:53:50.441Z,4.64
2018-12-12T05:54:50.425Z,4.77
2018-12-12T05:55:50.399Z,4.88
2018-12-12T05:57:11.382Z,4.86
2018-12-12T05:57:50.357Z,4.76
2018-12-12T05:58:50.335Z,4.73
2018-12-12T05:59:50.316Z,4.67
2018-12-12T06:00:50.298Z,4.70
2018-12-12T06:01:50.270Z,4.73
2018-12-12T06:03:11.246Z,4.73
2018-12-12T06:03:50.224Z,4.76
2018-12-12T06:04:50.210Z,4.69
2018-12-12T06:05:50.187Z,4.73
2018-12-12T06:06:50.159Z,4.80
2018-12-12T06:07:50.136Z,4.73
2018-12-12T06:09:11.112Z,4.75
2018-12-12T06:09:50.091Z,4.77
2018-12-12T06:10:50.074Z,4.76
2018-12-12T06:11:50.049Z,4.79
2018-12-12T06:12:50.026Z,4.76
2018-12-12T06:13:50.012Z,4.77
2018-12-12T06:15:10.987Z,4.83
2018-12-12T06:15:49.958Z,4.89
2018-12-12T06:16:49.942Z,4.89
2018-12-12T06:17:49.921Z,4.88
2018-12-12T06:18:49.894Z,4.98
2018-12-12T06:19:49.874Z,4.92
2018-12-12T06:21:10.856Z,4.94
2018-12-12T06:21:49.836Z,4.99
2018-12-12T06:22:49.808Z,4.84
2018-12-12T06:23:49.788Z,4.91
2018-12-12T06:24:49.764Z,4.92
2018-12-12T06:25:49.739Z,4.89
2018-12-12T06:27:10.847Z,4.84
2018-12-12T06:27:49.699Z,4.77
2018-12-12T06:28:49.678Z,4.86
2018-12-12T06:29:49.658Z,4.83
2018-12-12T06:30:49.633Z,4.86
2018-12-12T06:31:49.610Z,4.84
2018-12-12T06:33:10.591Z,4.88
2018-12-12T06:33:49.568Z,4.86
2018-12-12T06:34:49.549Z,4.98
2018-12-12T06:35:49.523Z,4.91
2018-12-12T06:36:49.506Z,4.88
2018-12-12T06:37:49.480Z,4.89
2018-12-12T06:39:10.468Z,4.96
2018-12-12T06:39:49.445Z,5.01
2018-12-12T06:40:49.414Z,4.91
2018-12-12T06:41:49.393Z,4.94
2018-12-12T06:42:49.371Z,4.91
2018-12-12T06:43:49.351Z,4.96
2018-12-12T06:45:10.327Z,4.94
2018-12-12T06:45:49.305Z,5.02
2018-12-12T06:46:49.284Z,4.94
2018-12-12T06:47:49.269Z,4.91
2018-12-12T06:48:49.243Z,4.94
2018-12-12T06:49:49.225Z,4.98
2018-12-12T06:51:10.202Z,4.98
2018-12-12T06:51:49.178Z,4.91
2018-12-12T06:52:49.152Z,4.92
2018-12-12T06:53:49.148Z,4.91
2018-12-12T06:54:49.110Z,4.92
2018-12-12T06:55:49.087Z,4.96
2018-12-12T06:57:10.065Z,4.91
2018-12-12T06:57:49.045Z,4.91
2018-12-12T06:58:49.025Z,4.88
2018-12-12T06:59:49.001Z,4.95
2018-12-12T07:00:48.981Z,4.98
2018-12-12T07:01:48.960Z,4.96
2018-12-12T07:03:09.937Z,4.96
2018-12-12T07:03:48.915Z,4.96
2018-12-12T07:04:48.895Z,4.96
2018-12-12T07:05:48.869Z,4.99
2018-12-12T07:06:48.851Z,4.96
2018-12-12T07:07:48.826Z,4.96
2018-12-12T07:09:09.810Z,4.91
2018-12-12T07:09:48.783Z,4.91
2018-12-12T07:10:48.767Z,4.92
2018-12-12T07:11:48.740Z,4.92
2018-12-12T07:12:48.718Z,4.79
2018-12-12T07:13:48.696Z,4.83
2018-12-12T07:15:09.687Z,4.86
2018-12-12T07:15:48.652Z,4.83
2018-12-12T07:16:48.632Z,4.89
2018-12-12T07:17:48.608Z,4.88
2018-12-12T07:18:48.594Z,4.88
2018-12-12T07:19:48.567Z,4.86
2018-12-12T07:21:09.548Z,4.89
2018-12-12T07:21:48.529Z,4.88
2018-12-12T07:22:49.031Z,4.98
2018-12-12T07:23:48.486Z,5.04
2018-12-12T07:24:48.462Z,5.07
2018-12-12T07:25:48.439Z,5.07
2018-12-12T07:27:09.417Z,5.07
2018-12-12T07:27:48.393Z,5.10
2018-12-12T07:28:48.372Z,5.04
2018-12-12T07:29:48.349Z,5.05
2018-12-12T07:30:48.339Z,5.01
2018-12-12T07:31:48.304Z,4.94
2018-12-12T07:33:09.283Z,4.94
2018-12-12T07:33:48.261Z,4.94
2018-12-12T07:34:48.240Z,4.98
2018-12-12T07:35:48.217Z,5.09
2018-12-12T07:36:48.196Z,5.01
2018-12-12T07:37:48.173Z,5.07
2018-12-12T07:39:09.153Z,5.17
2018-12-12T07:39:48.133Z,5.17
2018-12-12T07:40:48.113Z,5.10
2018-12-12T07:41:48.103Z,5.19
2018-12-12T07:42:48.069Z,5.10
2018-12-12T07:43:48.045Z,5.13
2018-12-12T07:45:09.024Z,5.27
2018-12-12T07:45:48.005Z,5.16
2018-12-12T07:46:47.979Z,5.16
2018-12-12T07:47:47.959Z,5.25
2018-12-12T07:48:47.934Z,5.19
2018-12-12T07:49:47.913Z,5.16
2018-12-12T07:51:08.905Z,5.14
2018-12-12T07:51:47.881Z,5.05
2018-12-12T07:52:47.850Z,5.02
2018-12-12T07:53:47.831Z,5.07
2018-12-12T07:54:47.805Z,5.04
2018-12-12T07:55:47.792Z,5.01
2018-12-12T07:57:08.764Z,5.09
2018-12-12T07:57:47.755Z,4.99
2018-12-12T07:58:47.725Z,5.05
2018-12-12T07:59:47.705Z,5.04
2018-12-12T08:00:47.676Z,5.13
2018-12-12T08:01:47.656Z,5.14
2018-12-12T08:03:08.661Z,5.16
2018-12-12T08:03:47.615Z,5.13
2018-12-12T08:04:47.590Z,5.17
2018-12-12T08:05:47.569Z,5.16
2018-12-12T08:06:47.550Z,5.27
2018-12-12T08:07:47.524Z,5.19
2018-12-12T08:09:08.508Z,5.04
2018-12-12T08:09:47.485Z,5.04
2018-12-12T08:10:47.463Z,5.09
2018-12-12T08:11:47.440Z,5.14
2018-12-12T08:12:47.416Z,5.17
2018-12-12T08:13:47.403Z,5.22
2018-12-12T08:15:08.379Z,5.25
2018-12-12T08:15:47.355Z,5.17
2018-12-12T08:16:47.337Z,5.35
2018-12-12T08:17:47.311Z,5.43
2018-12-12T08:18:47.290Z,5.45
2018-12-12T08:19:47.268Z,5.50
2018-12-12T08:21:08.256Z,5.60
2018-12-12T08:21:47.234Z,5.59
2018-12-12T08:22:47.204Z,5.57
2018-12-12T08:23:47.181Z,5.38
2018-12-12T08:24:47.162Z,5.16
2018-12-12T08:25:47.140Z,5.20
2018-12-12T08:27:08.122Z,5.02
2018-12-12T08:27:47.100Z,5.02
2018-12-12T08:28:47.075Z,5.01
2018-12-12T08:29:47.053Z,5.10
2018-12-12T08:30:47.035Z,5.09
2018-12-12T08:31:47.010Z,5.10
2018-12-12T08:33:11.131Z,5.10
2018-12-12T08:33:46.972Z,5.16
2018-12-12T08:34:46.946Z,5.22
2018-12-12T08:35:46.940Z,5.38
2018-12-12T08:36:46.927Z,5.38
2018-12-12T08:37:46.884Z,5.38
2018-12-12T08:39:07.862Z,5.32
2018-12-12T08:39:46.842Z,5.35
2018-12-12T08:40:46.818Z,5.28
2018-12-12T08:41:46.803Z,5.28
2018-12-12T08:42:46.779Z,5.32
2018-12-12T08:43:46.752Z,5.32
2018-12-12T08:45:07.733Z,5.14
2018-12-12T08:45:46.712Z,5.13
2018-12-12T08:46:46.689Z,5.13
2018-12-12T08:47:46.669Z,5.10
2018-12-12T08:48:46.651Z,5.12
2018-12-12T08:49:46.626Z,5.22
2018-12-12T08:51:07.621Z,5.22
2018-12-12T08:51:46.593Z,5.22
2018-12-12T08:52:46.563Z,5.19
2018-12-12T08:53:46.554Z,5.27
2018-12-12T08:54:46.520Z,5.28
2018-12-12T08:55:46.510Z,5.46
2018-12-12T08:57:07.476Z,5.52
2018-12-12T08:57:46.457Z,5.57
2018-12-12T08:58:46.441Z,5.63
2018-12-12T08:59:46.413Z,5.64
2018-12-12T09:00:46.393Z,5.74
2018-12-12T09:01:46.369Z,5.88
2018-12-12T09:03:07.358Z,5.85
2018-12-12T09:03:46.328Z,5.81
2018-12-12T09:04:46.306Z,5.91
2018-12-12T09:05:46.293Z,6.01
2018-12-12T09:06:46.293Z,5.93
2018-12-12T09:07:46.252Z,5.98
2018-12-12T09:09:07.223Z,6.01
2018-12-12T09:09:46.200Z,5.85
2018-12-12T09:10:46.182Z,5.75
2018-12-12T09:11:46.160Z,5.66
2018-12-12T09:12:46.139Z,5.66
2018-12-12T09:13:46.127Z,5.59
2018-12-12T09:15:07.102Z,5.59
2018-12-12T09:15:46.075Z,5.63
2018-12-12T09:16:46.052Z,5.67
2018-12-12T09:17:46.033Z,5.59
2018-12-12T09:18:46.012Z,5.56
2018-12-12T09:19:45.995Z,5.59
2018-12-12T09:21:06.973Z,5.68
2018-12-12T09:21:45.957Z,5.56
2018-12-12T09:22:45.928Z,5.59
2018-12-12T09:23:45.908Z,5.52
2018-12-12T09:24:45.888Z,5.55
2018-12-12T09:25:45.949Z,5.56
2018-12-12T09:27:06.852Z,5.49
2018-12-12T09:27:46.413Z,5.57
2018-12-12T09:28:45.801Z,5.56
2018-12-12T09:29:45.782Z,5.66
2018-12-12T09:30:45.781Z,5.66
2018-12-12T09:31:45.754Z,5.67
2018-12-12T09:33:06.723Z,5.67
2018-12-12T09:33:45.704Z,5.60
2018-12-12T09:34:45.685Z,5.66
2018-12-12T09:35:45.659Z,5.71
2018-12-12T09:36:45.682Z,5.60
2018-12-12T09:37:45.622Z,5.48
2018-12-12T09:39:07.658Z,5.45
2018-12-12T09:39:45.583Z,5.48
2018-12-12T09:40:45.569Z,5.50
2018-12-12T09:41:45.542Z,5.56
2018-12-12T09:42:45.532Z,5.56
2018-12-12T09:43:45.497Z,5.64
2018-12-12T09:45:06.469Z,5.60
2018-12-12T09:45:45.457Z,5.67
2018-12-12T09:46:45.441Z,5.60
2018-12-12T09:47:45.420Z,5.66
2018-12-12T09:48:45.395Z,5.60
2018-12-12T09:49:45.363Z,5.64
2018-12-12T09:51:07.544Z,5.66
2018-12-12T09:51:45.324Z,5.64
2018-12-12T09:52:45.314Z,5.64
2018-12-12T09:53:45.282Z,5.63
2018-12-12T09:54:45.261Z,5.60
2018-12-12T09:55:45.252Z,5.57
2018-12-12T09:57:06.220Z,5.66
2018-12-12T09:57:45.202Z,5.71
2018-12-12T09:58:45.187Z,5.66
2018-12-12T09:59:45.159Z,5.75
2018-12-12T10:00:45.133Z,5.74
2018-12-12T10:01:45.120Z,5.75
2018-12-12T10:03:06.833Z,5.74
2018-12-12T10:03:45.075Z,5.91
2018-12-12T10:04:45.047Z,5.96
2018-12-12T10:05:45.033Z,5.93
2018-12-12T10:06:45.017Z,5.96
2018-12-12T10:07:44.991Z,5.95
2018-12-12T10:09:05.967Z,6.01
2018-12-12T10:09:44.946Z,6.10
2018-12-12T10:10:44.928Z,6.04
2018-12-12T10:11:44.932Z,5.78
2018-12-12T10:12:44.884Z,5.64
2018-12-12T10:13:44.866Z,5.68
2018-12-12T10:15:05.846Z,5.77
2018-12-12T10:15:44.822Z,5.86
2018-12-12T10:16:44.800Z,6.00
2018-12-12T10:17:44.814Z,5.93
2018-12-12T10:18:44.761Z,6.04
2018-12-12T10:19:44.741Z,6.06
2018-12-12T10:21:05.726Z,6.16
2018-12-12T10:21:44.709Z,6.14
2018-12-12T10:22:44.709Z,6.11
2018-12-12T10:23:44.659Z,6.01
2018-12-12T10:24:44.664Z,6.07
2018-12-12T10:25:44.663Z,6.07
2018-12-12T10:27:05.611Z,6.11
2018-12-12T10:27:44.575Z,6.14
2018-12-12T10:28:44.555Z,6.06
2018-12-12T10:29:44.779Z,6.04
2018-12-12T10:30:44.514Z,6.19
2018-12-12T10:31:44.527Z,6.04
2018-12-12T10:33:06.084Z,6.16
2018-12-12T10:33:44.463Z,6.25
2018-12-12T10:34:44.476Z,6.21
2018-12-12T10:35:44.410Z,6.29
2018-12-12T10:36:44.384Z,6.16
2018-12-12T10:37:44.367Z,6.04
2018-12-12T10:39:05.356Z,6.22
2018-12-12T10:39:44.330Z,6.26
2018-12-12T10:40:44.321Z,6.35
2018-12-12T10:41:44.293Z,6.36
2018-12-12T10:42:44.267Z,6.30
2018-12-12T10:43:44.246Z,6.22
2018-12-12T10:45:05.227Z,6.22
2018-12-12T10:45:44.204Z,6.22
2018-12-12T10:46:44.187Z,6.26
2018-12-12T10:47:44.165Z,6.14
2018-12-12T10:48:44.149Z,6.09
2018-12-12T10:49:44.122Z,5.95
2018-12-12T10:51:05.110Z,6.04
2018-12-12T10:51:44.092Z,5.96
2018-12-12T10:52:44.081Z,5.93
2018-12-12T10:53:44.042Z,6.03
2018-12-12T10:54:44.020Z,6.06
2018-12-12T10:55:43.998Z,6.09
2018-12-12T10:57:04.983Z,6.18
2018-12-12T10:57:43.959Z,6.29
2018-12-12T10:58:43.950Z,6.35
2018-12-12T10:59:43.950Z,6.33
2018-12-12T11:00:43.911Z,6.38
2018-12-12T11:01:43.879Z,6.48
2018-12-12T11:03:04.869Z,6.44
2018-12-12T11:03:44.329Z,6.44
2018-12-12T11:04:43.832Z,6.29
2018-12-12T11:05:43.806Z,6.18
2018-12-12T11:06:43.784Z,6.32
2018-12-12T11:07:43.753Z,6.22
2018-12-12T11:09:04.748Z,6.06
2018-12-12T11:09:43.733Z,6.00
2018-12-12T11:10:43.701Z,6.09
2018-12-12T11:11:43.697Z,6.10
2018-12-12T11:12:43.688Z,6.09
2018-12-12T11:13:43.633Z,6.09
2018-12-12T11:15:04.615Z,6.07
2018-12-12T11:15:43.590Z,6.07
2018-12-12T11:16:43.650Z,6.26
2018-12-12T11:17:43.548Z,6.32
2018-12-12T11:18:43.527Z,6.35
2018-12-12T11:19:43.514Z,6.53
2018-12-12T11:21:04.601Z,6.50
2018-12-12T11:21:43.465Z,6.47
2018-12-12T11:22:43.450Z,6.46
2018-12-12T11:23:43.432Z,6.58
2018-12-12T11:24:43.410Z,6.65
2018-12-12T11:25:43.405Z,6.66
2018-12-12T11:27:04.370Z,6.69
2018-12-12T11:27:43.351Z,6.76
2018-12-12T11:28:43.323Z,6.76
2018-12-12T11:29:43.399Z,6.84
2018-12-12T11:30:43.340Z,6.90
2018-12-12T11:31:43.272Z,6.89
2018-12-12T11:33:04.249Z,6.98
2018-12-12T11:33:43.238Z,7.02
2018-12-12T11:34:43.218Z,7.05
2018-12-12T11:35:43.191Z,6.95
2018-12-12T11:36:43.174Z,6.97
2018-12-12T11:37:43.153Z,6.84
2018-12-12T11:39:04.133Z,7.05
2018-12-12T11:39:43.105Z,7.04
2018-12-12T11:40:43.080Z,7.04
2018-12-12T11:41:43.063Z,7.09
2018-12-12T11:42:43.044Z,7.22
2018-12-12T11:43:43.033Z,7.24
2018-12-12T11:45:04.004Z,7.40
2018-12-12T11:45:42.982Z,7.45
2018-12-12T11:46:42.972Z,7.47
2018-12-12T11:47:42.941Z,7.35
2018-12-12T11:48:42.924Z,7.42
2018-12-12T11:49:42.905Z,7.42
2018-12-12T11:51:03.984Z,7.35
2018-12-12T11:51:42.923Z,7.41
2018-12-12T11:52:43.533Z,7.47
2018-12-12T11:53:42.829Z,7.50
2018-12-12T11:54:42.802Z,7.42
2018-12-12T11:55:42.799Z,7.44
2018-12-12T11:57:03.773Z,7.41
2018-12-12T11:57:42.740Z,7.55
2018-12-12T11:58:42.723Z,7.41
2018-12-12T11:59:42.703Z,7.47
2018-12-12T12:00:42.681Z,7.55
2018-12-12T12:01:42.665Z,7.50
2018-12-12T12:03:03.648Z,7.44
2018-12-12T12:03:42.626Z,7.45
2018-12-12T12:04:42.632Z,7.40
2018-12-12T12:05:42.591Z,7.35
2018-12-12T12:06:42.566Z,7.34
2018-12-12T12:07:42.548Z,7.41
2018-12-12T12:09:03.537Z,7.34
2018-12-12T12:09:42.506Z,7.34
2018-12-12T12:10:42.491Z,7.37
2018-12-12T12:11:42.472Z,7.37
2018-12-12T12:12:42.448Z,7.47
2018-12-12T12:13:42.431Z,7.45
2018-12-12T12:15:03.412Z,7.55
2018-12-12T12:15:42.390Z,7.50
2018-12-12T12:16:42.375Z,7.55
2018-12-12T12:17:42.349Z,7.58
2018-12-12T12:18:42.334Z,7.50
2018-12-12T12:19:42.313Z,7.72
2018-12-12T12:21:03.293Z,7.75
2018-12-12T12:21:42.273Z,7.74
2018-12-12T12:22:42.253Z,7.78
2018-12-12T12:23:42.232Z,7.81
2018-12-12T12:24:42.238Z,7.78
2018-12-12T12:25:42.194Z,7.82
2018-12-12T12:27:03.176Z,7.93
2018-12-12T12:27:42.155Z,7.85
2018-12-12T12:28:42.138Z,7.94
2018-12-12T12:29:42.125Z,7.89
2018-12-12T12:30:42.097Z,7.84
2018-12-12T12:31:42.083Z,7.93
2018-12-12T12:33:03.069Z,7.85
2018-12-12T12:33:42.037Z,7.85
2018-12-12T12:34:42.025Z,7.72
2018-12-12T12:35:41.998Z,7.78
2018-12-12T12:36:41.984Z,7.78
2018-12-12T12:37:41.962Z,7.58
2018-12-12T12:39:02.946Z,7.71
2018-12-12T12:39:41.921Z,7.75
2018-12-12T12:40:41.904Z,7.66
2018-12-12T12:41:41.882Z,7.71
2018-12-12T12:42:41.861Z,7.62
2018-12-12T12:43:41.848Z,7.67
2018-12-12T12:45:02.826Z,7.67
2018-12-12T12:45:41.804Z,7.50
2018-12-12T12:46:41.790Z,7.52
2018-12-12T12:47:41.930Z,7.55
2018-12-12T12:48:41.746Z,7.44
2018-12-12T12:49:41.727Z,7.55
2018-12-12T12:51:02.709Z,7.52
2018-12-12T12:51:41.691Z,7.49
2018-12-12T12:52:41.670Z,7.40
2018-12-12T12:53:41.649Z,7.41
2018-12-12T12:54:41.628Z,7.34
2018-12-12T12:55:41.613Z,7.35
2018-12-12T12:57:02.595Z,7.32
2018-12-12T12:57:41.569Z,7.37
2018-12-12T12:58:41.547Z,7.38
2018-12-12T12:59:41.534Z,7.32
2018-12-12T13:00:41.515Z,7.34
2018-12-12T13:01:41.490Z,7.42
2018-12-12T13:03:02.475Z,7.38
2018-12-12T13:03:41.452Z,7.35
2018-12-12T13:04:41.432Z,7.38
2018-12-12T13:05:41.424Z,7.34
2018-12-12T13:06:41.394Z,7.27
2018-12-12T13:07:41.376Z,7.22
2018-12-12T13:09:02.421Z,7.12
2018-12-12T13:09:41.339Z,7.09
2018-12-12T13:10:41.317Z,7.16
2018-12-12T13:11:41.297Z,7.15
2018-12-12T13:12:41.279Z,7.15
2018-12-12T13:13:41.269Z,7.26
2018-12-12T13:15:02.259Z,7.27
2018-12-12T13:15:41.214Z,7.37
2018-12-12T13:16:41.200Z,7.35
2018-12-12T13:17:41.174Z,7.22
2018-12-12T13:18:41.161Z,7.22